sensor_id;sensor_type;location;lat;lon;timestamp;noise_LAeq;noise_LA_min;noise_LA_max;noise_LA01;noise_LA95
67300;Laerm;57658;51.436;5.980;2022-08-03T00:00:05;33.19;31.70;35.47;;
67300;Laerm;57658;51.436;5.980;2022-08-03T00:00:15;51.24;32.12;63.72;;
67300;Laerm;57658;51.436;5.980;2022-08-03T00:00:26;33.96;31.55;37.35;;
67300;Laerm;57658;51.436;5.980;2022-08-03T00:00:39;34.21;32.23;36.88;;
67300;Laerm;57658;51.436;5.980;2022-08-03T00:00:49;34.50;31.40;37.67;;
67300;Laerm;57658;51.436;5.980;2022-08-03T00:00:59;34.44;31.60;36.87;;
67300;Laerm;57658;51.436;5.980;2022-08-03T00:01:10;34.61;32.17;46.89;;
67300;Laerm;57658;51.436;5.980;2022-08-03T00:01:20;33.75;31.83;35.75;;
67300;Laerm;57658;51.436;5.980;2022-08-03T00:01:30;33.31;31.54;35.03;;
67300;Laerm;57658;51.436;5.980;2022-08-03T00:01:41;33.28;31.28;35.11;;
67300;Laerm;57658;51.436;5.980;2022-08-03T00:01:51;33.23;31.14;34.65;;
67300;Laerm;57658;51.436;5.980;2022-08-03T00:02:02;33.16;31.83;34.58;;
67300;Laerm;57658;51.436;5.980;2022-08-03T00:02:13;33.68;31.97;34.95;;
67300;Laerm;57658;51.436;5.980;2022-08-03T00:02:23;33.73;32.07;35.33;;
67300;Laerm;57658;51.436;5.980;2022-08-03T00:02:33;33.99;32.69;35.36;;
67300;Laerm;57658;51.436;5.980;2022-08-03T00:02:43;33.95;32.42;37.17;;
67300;Laerm;57658;51.436;5.980;2022-08-03T00:02:54;34.16;32.54;35.72;;
67300;Laerm;57658;51.436;5.980;2022-08-03T00:03:04;34.72;32.17;50.12;;
67300;Laerm;57658;51.436;5.980;2022-08-03T00:03:14;33.68;32.03;36.61;;
67300;Laerm;57658;51.436;5.980;2022-08-03T00:03:25;34.42;32.17;46.61;;
67300;Laerm;57658;51.436;5.980;2022-08-03T00:03:35;33.56;32.14;37.17;;
67300;Laerm;57658;51.436;5.980;2022-08-03T00:03:45;33.45;31.96;37.64;;
67300;Laerm;57658;51.436;5.980;2022-08-03T00:03:56;35.34;32.02;49.75;;
67300;Laerm;57658;51.436;5.980;2022-08-03T00:04:06;33.83;32.12;44.64;;
67300;Laerm;57658;51.436;5.980;2022-08-03T00:04:17;33.54;32.12;35.16;;
67300;Laerm;57658;51.436;5.980;2022-08-03T00:04:27;34.30;32.84;38.24;;
67300;Laerm;57658;51.436;5.980;2022-08-03T00:04:38;34.14;32.31;35.71;;
67300;Laerm;57658;51.436;5.980;2022-08-03T00:04:48;34.60;33.10;36.36;;
67300;Laerm;57658;51.436;5.980;2022-08-03T00:04:58;35.48;33.65;38.84;;
67300;Laerm;57658;51.436;5.980;2022-08-03T00:05:08;37.03;34.77;38.81;;
67300;Laerm;57658;51.436;5.980;2022-08-03T00:05:19;36.89;34.36;38.97;;
67300;Laerm;57658;51.436;5.980;2022-08-03T00:05:29;36.43;34.80;45.29;;
67300;Laerm;57658;51.436;5.980;2022-08-03T00:05:42;36.41;34.71;38.24;;
67300;Laerm;57658;51.436;5.980;2022-08-03T00:05:52;36.64;34.44;45.61;;
67300;Laerm;57658;51.436;5.980;2022-08-03T00:06:02;36.64;34.84;46.73;;
67300;Laerm;57658;51.436;5.980;2022-08-03T00:06:13;36.26;34.69;38.02;;
67300;Laerm;57658;51.436;5.980;2022-08-03T00:06:23;36.38;34.41;38.22;;
67300;Laerm;57658;51.436;5.980;2022-08-03T00:06:33;36.09;34.03;38.11;;
67300;Laerm;57658;51.436;5.980;2022-08-03T00:06:43;36.24;34.03;37.95;;
67300;Laerm;57658;51.436;5.980;2022-08-03T00:06:54;35.60;33.54;38.44;;
67300;Laerm;57658;51.436;5.980;2022-08-03T00:07:04;36.15;33.45;47.57;;
67300;Laerm;57658;51.436;5.980;2022-08-03T00:07:14;35.51;33.55;37.62;;
67300;Laerm;57658;51.436;5.980;2022-08-03T00:07:25;35.98;33.72;48.63;;
67300;Laerm;57658;51.436;5.980;2022-08-03T00:07:35;35.27;33.57;41.89;;
67300;Laerm;57658;51.436;5.980;2022-08-03T00:07:47;35.32;33.17;47.96;;
67300;Laerm;57658;51.436;5.980;2022-08-03T00:07:58;34.94;32.78;41.91;;
67300;Laerm;57658;51.436;5.980;2022-08-03T00:08:08;35.08;33.43;36.87;;
67300;Laerm;57658;51.436;5.980;2022-08-03T00:08:19;35.06;33.38;43.34;;
67300;Laerm;57658;51.436;5.980;2022-08-03T00:08:29;35.62;33.79;40.61;;
67300;Laerm;57658;51.436;5.980;2022-08-03T00:08:40;35.37;32.86;43.22;;
67300;Laerm;57658;51.436;5.980;2022-08-03T00:08:50;35.25;33.37;44.81;;
67300;Laerm;57658;51.436;5.980;2022-08-03T00:09:00;35.46;33.46;46.77;;
67300;Laerm;57658;51.436;5.980;2022-08-03T00:09:11;35.24;33.33;37.53;;
67300;Laerm;57658;51.436;5.980;2022-08-03T00:09:21;35.89;33.87;50.50;;
67300;Laerm;57658;51.436;5.980;2022-08-03T00:09:31;36.24;33.74;51.20;;
67300;Laerm;57658;51.436;5.980;2022-08-03T00:09:42;35.65;33.03;47.58;;
67300;Laerm;57658;51.436;5.980;2022-08-03T00:09:52;35.84;33.61;50.17;;
67300;Laerm;57658;51.436;5.980;2022-08-03T00:10:02;35.57;33.43;48.43;;
67300;Laerm;57658;51.436;5.980;2022-08-03T00:10:12;34.96;33.06;39.36;;
67300;Laerm;57658;51.436;5.980;2022-08-03T00:10:23;35.19;33.45;44.12;;
67300;Laerm;57658;51.436;5.980;2022-08-03T00:10:33;35.07;33.29;46.53;;
67300;Laerm;57658;51.436;5.980;2022-08-03T00:10:43;34.50;33.18;35.88;;
67300;Laerm;57658;51.436;5.980;2022-08-03T00:10:54;34.78;32.45;45.94;;
67300;Laerm;57658;51.436;5.980;2022-08-03T00:11:04;35.08;33.15;49.78;;
67300;Laerm;57658;51.436;5.980;2022-08-03T00:11:16;34.67;32.72;48.79;;
67300;Laerm;57658;51.436;5.980;2022-08-03T00:11:26;34.08;31.67;42.82;;
67300;Laerm;57658;51.436;5.980;2022-08-03T00:11:36;34.86;32.99;40.61;;
67300;Laerm;57658;51.436;5.980;2022-08-03T00:11:47;34.85;33.03;37.16;;
67300;Laerm;57658;51.436;5.980;2022-08-03T00:11:57;34.71;32.52;37.65;;
67300;Laerm;57658;51.436;5.980;2022-08-03T00:12:07;33.88;31.66;36.23;;
67300;Laerm;57658;51.436;5.980;2022-08-03T00:12:17;33.63;32.27;35.42;;
67300;Laerm;57658;51.436;5.980;2022-08-03T00:12:28;33.64;32.22;35.17;;
67300;Laerm;57658;51.436;5.980;2022-08-03T00:12:38;33.57;32.03;35.16;;
67300;Laerm;57658;51.436;5.980;2022-08-03T00:12:48;33.40;31.05;34.97;;
67300;Laerm;57658;51.436;5.980;2022-08-03T00:12:59;33.29;31.44;35.46;;
67300;Laerm;57658;51.436;5.980;2022-08-03T00:13:10;33.06;31.19;34.67;;
67300;Laerm;57658;51.436;5.980;2022-08-03T00:13:21;32.89;31.12;34.76;;
67300;Laerm;57658;51.436;5.980;2022-08-03T00:13:32;32.83;31.63;34.92;;
67300;Laerm;57658;51.436;5.980;2022-08-03T00:13:42;32.56;31.04;34.06;;
67300;Laerm;57658;51.436;5.980;2022-08-03T00:13:52;32.69;31.20;34.20;;
67300;Laerm;57658;51.436;5.980;2022-08-03T00:14:03;32.69;31.27;34.47;;
67300;Laerm;57658;51.436;5.980;2022-08-03T00:14:14;32.56;30.61;36.62;;
67300;Laerm;57658;51.436;5.980;2022-08-03T00:14:25;32.76;30.49;40.48;;
67300;Laerm;57658;51.436;5.980;2022-08-03T00:14:35;32.47;30.95;43.62;;
67300;Laerm;57658;51.436;5.980;2022-08-03T00:14:46;32.55;31.02;40.34;;
67300;Laerm;57658;51.436;5.980;2022-08-03T00:14:56;32.31;30.97;33.86;;
67300;Laerm;57658;51.436;5.980;2022-08-03T00:15:07;32.39;30.81;33.99;;
67300;Laerm;57658;51.436;5.980;2022-08-03T00:15:17;32.36;30.47;34.06;;
67300;Laerm;57658;51.436;5.980;2022-08-03T00:15:28;32.27;30.58;34.26;;
67300;Laerm;57658;51.436;5.980;2022-08-03T00:15:41;32.18;30.73;33.64;;
67300;Laerm;57658;51.436;5.980;2022-08-03T00:15:52;32.23;30.81;33.75;;
67300;Laerm;57658;51.436;5.980;2022-08-03T00:16:02;32.05;30.05;34.42;;
67300;Laerm;57658;51.436;5.980;2022-08-03T00:16:13;32.21;30.66;33.94;;
67300;Laerm;57658;51.436;5.980;2022-08-03T00:16:23;32.06;30.37;33.44;;
67300;Laerm;57658;51.436;5.980;2022-08-03T00:16:35;32.20;30.64;33.44;;
67300;Laerm;57658;51.436;5.980;2022-08-03T00:16:45;32.02;30.19;33.38;;
67300;Laerm;57658;51.436;5.980;2022-08-03T00:16:55;32.02;30.72;33.57;;
67300;Laerm;57658;51.436;5.980;2022-08-03T00:17:06;31.92;30.27;33.26;;
67300;Laerm;57658;51.436;5.980;2022-08-03T00:17:17;31.90;30.67;33.40;;
67300;Laerm;57658;51.436;5.980;2022-08-03T00:17:27;31.81;30.34;33.13;;
67300;Laerm;57658;51.436;5.980;2022-08-03T00:17:37;31.97;30.59;33.59;;
67300;Laerm;57658;51.436;5.980;2022-08-03T00:17:48;32.01;30.55;33.56;;
67300;Laerm;57658;51.436;5.980;2022-08-03T00:17:58;32.13;30.61;33.32;;
67300;Laerm;57658;51.436;5.980;2022-08-03T00:18:08;31.97;30.44;33.79;;
67300;Laerm;57658;51.436;5.980;2022-08-03T00:18:19;32.09;30.68;33.49;;
67300;Laerm;57658;51.436;5.980;2022-08-03T00:18:29;32.19;30.75;33.48;;
67300;Laerm;57658;51.436;5.980;2022-08-03T00:18:39;32.32;30.69;33.97;;
67300;Laerm;57658;51.436;5.980;2022-08-03T00:18:49;32.36;30.88;39.22;;
67300;Laerm;57658;51.436;5.980;2022-08-03T00:19:00;32.24;30.55;33.59;;
67300;Laerm;57658;51.436;5.980;2022-08-03T00:19:11;32.27;30.64;33.86;;
67300;Laerm;57658;51.436;5.980;2022-08-03T00:19:21;32.21;30.85;33.50;;
67300;Laerm;57658;51.436;5.980;2022-08-03T00:19:31;32.56;31.20;33.85;;
67300;Laerm;57658;51.436;5.980;2022-08-03T00:19:41;32.83;30.70;34.85;;
67300;Laerm;57658;51.436;5.980;2022-08-03T00:19:52;33.57;31.52;35.55;;
67300;Laerm;57658;51.436;5.980;2022-08-03T00:20:02;34.35;32.44;36.58;;
67300;Laerm;57658;51.436;5.980;2022-08-03T00:20:12;34.73;32.68;37.36;;
67300;Laerm;57658;51.436;5.980;2022-08-03T00:20:23;34.90;32.46;39.32;;
67300;Laerm;57658;51.436;5.980;2022-08-03T00:20:33;35.06;32.96;38.98;;
67300;Laerm;57658;51.436;5.980;2022-08-03T00:20:44;35.27;32.35;38.44;;
67300;Laerm;57658;51.436;5.980;2022-08-03T00:20:54;34.43;31.97;36.84;;
67300;Laerm;57658;51.436;5.980;2022-08-03T00:21:04;33.86;31.55;36.50;;
67300;Laerm;57658;51.436;5.980;2022-08-03T00:21:15;33.50;31.73;35.93;;
67300;Laerm;57658;51.436;5.980;2022-08-03T00:21:25;33.27;31.59;35.35;;
67300;Laerm;57658;51.436;5.980;2022-08-03T00:21:35;33.14;31.28;35.28;;
67300;Laerm;57658;51.436;5.980;2022-08-03T00:21:46;32.86;30.93;34.64;;
67300;Laerm;57658;51.436;5.980;2022-08-03T00:21:56;32.69;31.39;34.26;;
67300;Laerm;57658;51.436;5.980;2022-08-03T00:22:06;32.85;31.31;34.95;;
67300;Laerm;57658;51.436;5.980;2022-08-03T00:22:17;32.71;30.94;34.23;;
67300;Laerm;57658;51.436;5.980;2022-08-03T00:22:27;32.90;31.53;34.30;;
67300;Laerm;57658;51.436;5.980;2022-08-03T00:22:38;33.22;31.50;35.23;;
67300;Laerm;57658;51.436;5.980;2022-08-03T00:22:48;33.38;31.60;35.15;;
67300;Laerm;57658;51.436;5.980;2022-08-03T00:22:58;33.43;31.69;35.22;;
67300;Laerm;57658;51.436;5.980;2022-08-03T00:23:09;33.49;31.87;35.03;;
67300;Laerm;57658;51.436;5.980;2022-08-03T00:23:19;68.89;32.53;76.73;;
67300;Laerm;57658;51.436;5.980;2022-08-03T00:23:29;69.35;54.24;76.65;;
67300;Laerm;57658;51.436;5.980;2022-08-03T00:23:40;64.43;53.86;74.20;;
67300;Laerm;57658;51.436;5.980;2022-08-03T00:23:50;65.51;54.49;75.58;;
67300;Laerm;57658;51.436;5.980;2022-08-03T00:24:00;65.72;56.03;74.33;;
67300;Laerm;57658;51.436;5.980;2022-08-03T00:24:11;82.93;71.46;88.95;;
67300;Laerm;57658;51.436;5.980;2022-08-03T00:24:21;82.85;78.64;89.50;;
67300;Laerm;57658;51.436;5.980;2022-08-03T00:24:31;68.41;48.95;81.74;;
67300;Laerm;57658;51.436;5.980;2022-08-03T00:24:42;47.26;42.26;51.05;;
67300;Laerm;57658;51.436;5.980;2022-08-03T00:24:52;42.37;38.47;45.66;;
67300;Laerm;57658;51.436;5.980;2022-08-03T00:25:02;38.38;35.62;41.64;;
67300;Laerm;57658;51.436;5.980;2022-08-03T00:25:13;35.66;33.56;37.93;;
67300;Laerm;57658;51.436;5.980;2022-08-03T00:25:23;34.37;32.55;35.87;;
67300;Laerm;57658;51.436;5.980;2022-08-03T00:25:34;33.61;31.66;35.46;;
67300;Laerm;57658;51.436;5.980;2022-08-03T00:25:44;33.12;31.42;34.62;;
67300;Laerm;57658;51.436;5.980;2022-08-03T00:25:55;33.35;31.53;35.29;;
67300;Laerm;57658;51.436;5.980;2022-08-03T00:26:05;33.51;32.04;35.17;;
67300;Laerm;57658;51.436;5.980;2022-08-03T00:26:16;33.34;31.92;35.03;;
67300;Laerm;57658;51.436;5.980;2022-08-03T00:26:26;33.47;31.90;35.24;;
67300;Laerm;57658;51.436;5.980;2022-08-03T00:26:37;33.32;31.89;34.59;;
67300;Laerm;57658;51.436;5.980;2022-08-03T00:26:47;33.16;31.47;34.49;;
67300;Laerm;57658;51.436;5.980;2022-08-03T00:26:57;33.12;31.72;34.39;;
67300;Laerm;57658;51.436;5.980;2022-08-03T00:27:07;33.45;31.76;36.42;;
67300;Laerm;57658;51.436;5.980;2022-08-03T00:27:18;34.31;32.07;39.87;;
67300;Laerm;57658;51.436;5.980;2022-08-03T00:27:28;46.64;34.35;62.00;;
67300;Laerm;57658;51.436;5.980;2022-08-03T00:27:38;41.24;31.69;48.18;;
67300;Laerm;57658;51.436;5.980;2022-08-03T00:27:48;33.20;31.38;34.66;;
67300;Laerm;57658;51.436;5.980;2022-08-03T00:27:59;32.82;31.42;34.93;;
67300;Laerm;57658;51.436;5.980;2022-08-03T00:28:09;32.82;31.63;34.13;;
67300;Laerm;57658;51.436;5.980;2022-08-03T00:28:19;32.94;31.44;34.43;;
67300;Laerm;57658;51.436;5.980;2022-08-03T00:28:30;33.28;31.41;35.00;;
67300;Laerm;57658;51.436;5.980;2022-08-03T00:28:40;33.45;31.91;34.72;;
67300;Laerm;57658;51.436;5.980;2022-08-03T00:28:51;33.44;32.14;34.60;;
67300;Laerm;57658;51.436;5.980;2022-08-03T00:29:01;33.29;31.78;34.70;;
67300;Laerm;57658;51.436;5.980;2022-08-03T00:29:11;33.46;32.07;35.03;;
67300;Laerm;57658;51.436;5.980;2022-08-03T00:29:21;34.23;32.74;35.53;;
67300;Laerm;57658;51.436;5.980;2022-08-03T00:29:32;34.35;33.02;35.40;;
67300;Laerm;57658;51.436;5.980;2022-08-03T00:29:42;34.72;33.44;36.11;;
67300;Laerm;57658;51.436;5.980;2022-08-03T00:29:52;34.61;32.80;37.76;;
67300;Laerm;57658;51.436;5.980;2022-08-03T00:30:02;34.45;33.12;36.17;;
67300;Laerm;57658;51.436;5.980;2022-08-03T00:30:13;34.31;32.58;35.62;;
67300;Laerm;57658;51.436;5.980;2022-08-03T00:30:23;34.43;32.92;36.11;;
67300;Laerm;57658;51.436;5.980;2022-08-03T00:30:34;34.31;32.31;35.86;;
67300;Laerm;57658;51.436;5.980;2022-08-03T00:30:44;34.24;32.77;35.94;;
67300;Laerm;57658;51.436;5.980;2022-08-03T00:30:55;33.82;32.18;35.32;;
67300;Laerm;57658;51.436;5.980;2022-08-03T00:31:05;43.15;32.21;61.30;;
67300;Laerm;57658;51.436;5.980;2022-08-03T00:31:15;45.57;32.59;61.38;;
67300;Laerm;57658;51.436;5.980;2022-08-03T00:31:26;35.08;32.70;37.99;;
67300;Laerm;57658;51.436;5.980;2022-08-03T00:31:36;39.83;34.54;45.15;;
67300;Laerm;57658;51.436;5.980;2022-08-03T00:31:46;58.20;42.85;69.62;;
67300;Laerm;57658;51.436;5.980;2022-08-03T00:31:57;58.01;39.93;65.86;;
67300;Laerm;57658;51.436;5.980;2022-08-03T00:32:07;40.73;36.81;44.69;;
67300;Laerm;57658;51.436;5.980;2022-08-03T00:32:18;38.09;35.33;45.23;;
67300;Laerm;57658;51.436;5.980;2022-08-03T00:32:28;37.09;33.87;42.69;;
67300;Laerm;57658;51.436;5.980;2022-08-03T00:32:38;34.95;32.98;37.20;;
67300;Laerm;57658;51.436;5.980;2022-08-03T00:32:49;34.51;32.68;36.62;;
67300;Laerm;57658;51.436;5.980;2022-08-03T00:32:59;33.38;31.30;34.76;;
67300;Laerm;57658;51.436;5.980;2022-08-03T00:33:09;33.15;31.82;34.73;;
67300;Laerm;57658;51.436;5.980;2022-08-03T00:33:20;32.88;31.52;34.27;;
67300;Laerm;57658;51.436;5.980;2022-08-03T00:33:31;33.03;31.79;34.46;;
67300;Laerm;57658;51.436;5.980;2022-08-03T00:33:41;33.09;31.77;34.53;;
67300;Laerm;57658;51.436;5.980;2022-08-03T00:33:51;33.29;31.57;34.81;;
67300;Laerm;57658;51.436;5.980;2022-08-03T00:34:02;33.71;32.12;35.28;;
67300;Laerm;57658;51.436;5.980;2022-08-03T00:34:12;33.77;32.20;35.63;;
67300;Laerm;57658;51.436;5.980;2022-08-03T00:34:22;33.57;32.19;35.02;;
67300;Laerm;57658;51.436;5.980;2022-08-03T00:34:32;34.03;32.57;35.68;;
67300;Laerm;57658;51.436;5.980;2022-08-03T00:34:43;34.22;32.84;35.87;;
67300;Laerm;57658;51.436;5.980;2022-08-03T00:34:53;33.98;32.66;35.56;;
67300;Laerm;57658;51.436;5.980;2022-08-03T00:35:03;34.06;32.15;36.40;;
67300;Laerm;57658;51.436;5.980;2022-08-03T00:35:14;33.68;31.92;35.05;;
67300;Laerm;57658;51.436;5.980;2022-08-03T00:35:24;33.67;32.45;34.82;;
67300;Laerm;57658;51.436;5.980;2022-08-03T00:35:35;33.85;32.28;36.90;;
67300;Laerm;57658;51.436;5.980;2022-08-03T00:35:45;33.95;32.02;35.37;;
67300;Laerm;57658;51.436;5.980;2022-08-03T00:35:55;33.75;32.42;35.08;;
67300;Laerm;57658;51.436;5.980;2022-08-03T00:36:05;34.00;32.33;35.19;;
67300;Laerm;57658;51.436;5.980;2022-08-03T00:36:16;33.85;31.88;35.43;;
67300;Laerm;57658;51.436;5.980;2022-08-03T00:36:26;33.17;31.78;35.00;;
67300;Laerm;57658;51.436;5.980;2022-08-03T00:36:37;33.05;31.31;34.67;;
67300;Laerm;57658;51.436;5.980;2022-08-03T00:36:47;33.43;32.15;35.38;;
67300;Laerm;57658;51.436;5.980;2022-08-03T00:36:57;33.76;31.36;36.09;;
67300;Laerm;57658;51.436;5.980;2022-08-03T00:37:08;35.37;33.32;36.89;;
67300;Laerm;57658;51.436;5.980;2022-08-03T00:37:18;35.29;32.92;36.98;;
67300;Laerm;57658;51.436;5.980;2022-08-03T00:37:28;35.46;33.36;37.54;;
67300;Laerm;57658;51.436;5.980;2022-08-03T00:37:38;35.13;33.26;37.42;;
67300;Laerm;57658;51.436;5.980;2022-08-03T00:37:49;34.94;33.05;36.97;;
67300;Laerm;57658;51.436;5.980;2022-08-03T00:37:59;35.34;33.15;37.83;;
67300;Laerm;57658;51.436;5.980;2022-08-03T00:38:09;34.52;32.98;36.18;;
67300;Laerm;57658;51.436;5.980;2022-08-03T00:38:19;34.21;32.70;35.77;;
67300;Laerm;57658;51.436;5.980;2022-08-03T00:38:30;34.37;32.53;36.27;;
67300;Laerm;57658;51.436;5.980;2022-08-03T00:38:40;33.81;32.18;35.31;;
67300;Laerm;57658;51.436;5.980;2022-08-03T00:38:50;33.86;32.26;35.30;;
67300;Laerm;57658;51.436;5.980;2022-08-03T00:39:00;33.74;32.02;35.52;;
67300;Laerm;57658;51.436;5.980;2022-08-03T00:39:11;33.18;31.54;34.53;;
67300;Laerm;57658;51.436;5.980;2022-08-03T00:39:21;33.80;31.87;35.15;;
67300;Laerm;57658;51.436;5.980;2022-08-03T00:39:31;33.80;31.97;35.63;;
67300;Laerm;57658;51.436;5.980;2022-08-03T00:39:41;33.56;32.16;35.13;;
67300;Laerm;57658;51.436;5.980;2022-08-03T00:39:54;33.56;32.10;35.16;;
67300;Laerm;57658;51.436;5.980;2022-08-03T00:40:05;33.74;32.09;35.21;;
67300;Laerm;57658;51.436;5.980;2022-08-03T00:40:16;33.70;32.06;35.34;;
67300;Laerm;57658;51.436;5.980;2022-08-03T00:40:26;33.39;31.57;34.79;;
67300;Laerm;57658;51.436;5.980;2022-08-03T00:40:37;33.51;31.94;35.39;;
67300;Laerm;57658;51.436;5.980;2022-08-03T00:40:47;33.89;31.99;35.84;;
67300;Laerm;57658;51.436;5.980;2022-08-03T00:40:57;34.19;32.30;41.96;;
67300;Laerm;57658;51.436;5.980;2022-08-03T00:41:08;34.17;32.19;35.84;;
67300;Laerm;57658;51.436;5.980;2022-08-03T00:41:18;34.69;32.12;46.27;;
67300;Laerm;57658;51.436;5.980;2022-08-03T00:41:28;34.43;32.73;36.60;;
67300;Laerm;57658;51.436;5.980;2022-08-03T00:41:38;34.92;32.44;44.62;;
67300;Laerm;57658;51.436;5.980;2022-08-03T00:41:49;34.85;32.97;39.78;;
67300;Laerm;57658;51.436;5.980;2022-08-03T00:42:03;35.02;33.03;36.96;;
67300;Laerm;57658;51.436;5.980;2022-08-03T00:42:13;35.17;32.90;45.02;;
67300;Laerm;57658;51.436;5.980;2022-08-03T00:42:24;34.94;33.16;37.00;;
67300;Laerm;57658;51.436;5.980;2022-08-03T00:42:34;35.70;32.24;46.04;;
67300;Laerm;57658;51.436;5.980;2022-08-03T00:42:56;35.65;32.91;51.12;;
67300;Laerm;57658;51.436;5.980;2022-08-03T00:43:06;35.08;33.22;44.56;;
67300;Laerm;57658;51.436;5.980;2022-08-03T00:43:17;35.19;33.03;36.87;;
67300;Laerm;57658;51.436;5.980;2022-08-03T00:43:27;35.59;32.42;47.34;;
67300;Laerm;57658;51.436;5.980;2022-08-03T00:43:37;35.51;33.72;37.62;;
67300;Laerm;57658;51.436;5.980;2022-08-03T00:43:48;36.06;33.18;49.95;;
67300;Laerm;57658;51.436;5.980;2022-08-03T00:43:58;36.20;34.01;43.09;;
67300;Laerm;57658;51.436;5.980;2022-08-03T00:44:08;36.29;33.79;47.97;;
67300;Laerm;57658;51.436;5.980;2022-08-03T00:44:18;35.60;33.75;37.33;;
67300;Laerm;57658;51.436;5.980;2022-08-03T00:44:29;35.96;33.33;47.46;;
67300;Laerm;57658;51.436;5.980;2022-08-03T00:44:40;35.59;33.46;38.19;;
67300;Laerm;57658;51.436;5.980;2022-08-03T00:44:50;35.95;33.64;37.97;;
67300;Laerm;57658;51.436;5.980;2022-08-03T00:45:00;35.71;33.43;37.81;;
67300;Laerm;57658;51.436;5.980;2022-08-03T00:45:11;35.98;33.92;38.64;;
67300;Laerm;57658;51.436;5.980;2022-08-03T00:46:00;35.97;33.63;38.36;;
67300;Laerm;57658;51.436;5.980;2022-08-03T00:46:11;36.16;34.00;38.60;;
67300;Laerm;57658;51.436;5.980;2022-08-03T00:46:21;36.20;34.48;38.28;;
67300;Laerm;57658;51.436;5.980;2022-08-03T00:46:31;36.54;34.41;38.68;;
67300;Laerm;57658;51.436;5.980;2022-08-03T00:46:41;37.50;34.93;40.95;;
67300;Laerm;57658;51.436;5.980;2022-08-03T00:46:52;43.83;37.82;48.51;;
67300;Laerm;57658;51.436;5.980;2022-08-03T00:47:02;57.50;46.59;62.16;;
67300;Laerm;57658;51.436;5.980;2022-08-03T00:47:12;46.56;40.27;52.19;;
67300;Laerm;57658;51.436;5.980;2022-08-03T00:47:22;38.37;34.61;42.76;;
67300;Laerm;57658;51.436;5.980;2022-08-03T00:47:33;36.03;34.03;37.68;;
67300;Laerm;57658;51.436;5.980;2022-08-03T00:47:43;36.35;34.38;38.52;;
67300;Laerm;57658;51.436;5.980;2022-08-03T00:47:54;36.20;34.16;38.06;;
67300;Laerm;57658;51.436;5.980;2022-08-03T00:48:05;35.93;34.14;39.69;;
67300;Laerm;57658;51.436;5.980;2022-08-03T00:48:15;36.26;33.78;38.75;;
67300;Laerm;57658;51.436;5.980;2022-08-03T00:48:26;35.46;32.82;37.40;;
67300;Laerm;57658;51.436;5.980;2022-08-03T00:48:36;36.22;33.47;38.97;;
67300;Laerm;57658;51.436;5.980;2022-08-03T00:48:49;37.40;34.27;39.73;;
67300;Laerm;57658;51.436;5.980;2022-08-03T00:48:59;36.71;33.97;38.97;;
67300;Laerm;57658;51.436;5.980;2022-08-03T00:49:11;36.61;34.60;39.23;;
67300;Laerm;57658;51.436;5.980;2022-08-03T00:49:21;36.16;34.18;38.39;;
67300;Laerm;57658;51.436;5.980;2022-08-03T00:49:31;36.76;34.35;39.14;;
67300;Laerm;57658;51.436;5.980;2022-08-03T00:49:42;36.69;34.04;38.82;;
67300;Laerm;57658;51.436;5.980;2022-08-03T00:49:52;36.53;33.76;38.89;;
67300;Laerm;57658;51.436;5.980;2022-08-03T00:50:02;36.61;34.05;38.73;;
67300;Laerm;57658;51.436;5.980;2022-08-03T00:50:13;36.83;34.30;38.76;;
67300;Laerm;57658;51.436;5.980;2022-08-03T00:50:23;37.50;35.01;39.46;;
67300;Laerm;57658;51.436;5.980;2022-08-03T00:50:36;37.22;34.63;39.89;;
67300;Laerm;57658;51.436;5.980;2022-08-03T00:50:48;37.67;34.28;40.18;;
67300;Laerm;57658;51.436;5.980;2022-08-03T00:50:58;37.65;35.09;41.50;;
67300;Laerm;57658;51.436;5.980;2022-08-03T00:51:08;38.24;35.34;43.70;;
67300;Laerm;57658;51.436;5.980;2022-08-03T00:51:19;38.80;35.83;46.45;;
67300;Laerm;57658;51.436;5.980;2022-08-03T00:51:30;38.09;35.18;43.50;;
67300;Laerm;57658;51.436;5.980;2022-08-03T00:51:40;38.26;35.59;49.19;;
67300;Laerm;57658;51.436;5.980;2022-08-03T00:51:51;38.86;36.43;45.14;;
67300;Laerm;57658;51.436;5.980;2022-08-03T00:52:01;37.54;35.22;39.56;;
67300;Laerm;57658;51.436;5.980;2022-08-03T00:52:12;37.87;35.79;39.79;;
67300;Laerm;57658;51.436;5.980;2022-08-03T00:52:22;38.04;35.43;47.68;;
67300;Laerm;57658;51.436;5.980;2022-08-03T00:52:33;36.78;34.56;49.28;;
67300;Laerm;57658;51.436;5.980;2022-08-03T00:52:44;36.65;34.79;41.28;;
67300;Laerm;57658;51.436;5.980;2022-08-03T00:52:55;35.50;33.72;37.09;;
67300;Laerm;57658;51.436;5.980;2022-08-03T00:53:06;34.76;32.49;37.04;;
67300;Laerm;57658;51.436;5.980;2022-08-03T00:53:17;67.71;33.81;74.92;;
67300;Laerm;57658;51.436;5.980;2022-08-03T00:53:27;69.18;54.90;75.12;;
67300;Laerm;57658;51.436;5.980;2022-08-03T00:53:38;63.77;54.15;73.44;;
67300;Laerm;57658;51.436;5.980;2022-08-03T00:53:48;63.56;55.25;73.80;;
67300;Laerm;57658;51.436;5.980;2022-08-03T00:53:59;63.64;55.33;72.28;;
67300;Laerm;57658;51.436;5.980;2022-08-03T00:54:09;79.67;56.48;87.43;;
67300;Laerm;57658;51.436;5.980;2022-08-03T00:54:19;83.74;79.31;90.57;;
67300;Laerm;57658;51.436;5.980;2022-08-03T00:54:30;80.34;60.74;86.67;;
67300;Laerm;57658;51.436;5.980;2022-08-03T00:54:41;59.66;49.43;69.96;;
67300;Laerm;57658;51.436;5.980;2022-08-03T00:54:51;47.33;41.39;51.81;;
67300;Laerm;57658;51.436;5.980;2022-08-03T00:55:02;41.13;36.64;45.64;;
67300;Laerm;57658;51.436;5.980;2022-08-03T00:55:12;36.69;33.67;43.12;;
67300;Laerm;57658;51.436;5.980;2022-08-03T00:55:23;34.40;32.52;37.66;;
67300;Laerm;57658;51.436;5.980;2022-08-03T00:55:37;33.58;31.85;35.73;;
67300;Laerm;57658;51.436;5.980;2022-08-03T00:55:47;33.54;31.39;35.41;;
67300;Laerm;57658;51.436;5.980;2022-08-03T00:55:57;32.56;31.24;34.31;;
67300;Laerm;57658;51.436;5.980;2022-08-03T00:56:07;32.24;31.03;33.56;;
67300;Laerm;57658;51.436;5.980;2022-08-03T00:56:18;32.20;30.45;33.44;;
67300;Laerm;57658;51.436;5.980;2022-08-03T00:56:28;32.26;30.93;33.71;;
67300;Laerm;57658;51.436;5.980;2022-08-03T00:56:39;32.76;31.20;34.14;;
67300;Laerm;57658;51.436;5.980;2022-08-03T00:56:49;33.07;31.46;39.10;;
67300;Laerm;57658;51.436;5.980;2022-08-03T00:57:00;32.47;30.82;34.12;;
67300;Laerm;57658;51.436;5.980;2022-08-03T00:57:10;32.42;31.14;34.07;;
67300;Laerm;57658;51.436;5.980;2022-08-03T00:57:21;32.48;31.10;33.85;;
67300;Laerm;57658;51.436;5.980;2022-08-03T00:57:31;32.50;31.19;34.41;;
67300;Laerm;57658;51.436;5.980;2022-08-03T00:57:42;32.26;30.78;33.88;;
67300;Laerm;57658;51.436;5.980;2022-08-03T00:57:53;32.19;30.60;33.58;;
67300;Laerm;57658;51.436;5.980;2022-08-03T00:58:03;32.76;30.42;34.66;;
67300;Laerm;57658;51.436;5.980;2022-08-03T00:58:15;36.60;33.14;40.51;;
67300;Laerm;57658;51.436;5.980;2022-08-03T00:58:26;45.64;38.48;50.57;;
67300;Laerm;57658;51.436;5.980;2022-08-03T00:58:36;61.63;48.95;70.32;;
67300;Laerm;57658;51.436;5.980;2022-08-03T00:58:46;66.11;43.27;75.18;;
67300;Laerm;57658;51.436;5.980;2022-08-03T00:58:56;41.82;37.47;46.23;;
67300;Laerm;57658;51.436;5.980;2022-08-03T00:59:08;39.09;34.48;45.66;;
67300;Laerm;57658;51.436;5.980;2022-08-03T00:59:18;53.62;43.50;60.38;;
67300;Laerm;57658;51.436;5.980;2022-08-03T00:59:30;52.57;43.16;61.07;;